Tiempo atmosférico en la estación meteorológica de Tarazona, Zaragoza (475 m.)



Fecha
DESCASC
Temp. máxima en grados centígrados (hora)
DESCASC
Temp. mínima en grados centígrados (hora)
DESCASC
Temp. media en grados centígrados
DESCASC
Racha de viento máxima en m/sg (hora)
DESCASC
Velocidad máxima media en intervalos de 10 minutos(hora)
DESCASC
Precipitaciones diarias en mm
DESCASC
Precipitaciones de 00:00 a 06:00 en mm
DESCASC
Precipitaciones de 06:00 a 12:00 en mm
DESCASC
Precipitaciones de 12:00 a 18:00 en mm
DESCASC
Precipitaciones de 18:00 a 24:00 en mm
DESCASC
10-07-2020 28.7 (17:20) 17.6 (07:20) 23.2 15.28 (00:20) 8.89 (00:20) 0.2 0.2 0 0 0
09-07-2020 31.7 (15:40) 19.2 (06:50) 25.5 12.5 (18:50) 7.22 (18:50) 0 0 0 0 0
08-07-2020 33.7 (20:00) 13.9 (06:00) 23.8 16.94 (19:40) 9.17 (19:30) 0 0 0 0 0
07-07-2020 29.9 (17:30) 10.8 (06:30) 20.3 8.61 (16:50) 4.72 (09:40) 0 0 0 0 0
06-07-2020 27.2 (16:40) 17 (00:00) 22.1 14.44 (13:40) 7.5 (15:00) 0 0 0 0 0
05-07-2020 32.9 (17:30) 17.6 (06:10) 25.3 9.44 (16:40) 5 (19:50) 0 0 0 0 0
04-07-2020 29.7 (19:00) 11.3 (06:10) 20.5 10 (17:50) 5.28 (17:50) 0 0 0 0 0
03-07-2020 24.2 (16:40) 14.1 (06:20) 19.2 11.11 (19:30) 6.11 (18:30) 0 0 0 0 0
02-07-2020 26.3 (15:40) 16.5 (00:00) 21.4 11.67 (17:40) 6.39 (19:30) 0 0 0 0 0
01-07-2020 31.7 (17:20) 18.6 (00:00) 25.2 13.33 (18:10) 6.94 (18:10) 2.2 0 0 0.6 1.6
30-06-2020 29.4 (18:50) 14.4 (00:00) 21.9 5.56 (15:10) 3.61 (23:10) 0 0 0 0 0
29-06-2020 28.6 (17:40) 16.9 (00:00) 22.8 10 (19:30) 5.56 (19:30) 0 0 0 0 0
28-06-2020 30.5 (17:50) 16.6 (00:00) 23.6 8.89 (20:40) 4.17 (20:30) 0 0 0 0 0
27-06-2020 29.5 (19:10) 14.8 (00:00) 22.2 5.56 (13:30) 2.78 (13:30) 0 0 0 0 0
26-06-2020 28.9 (14:30) 16.3 (00:00) 22.6 11.39 (15:30) 6.94 (15:40) 13 0.6 0 12.4 0
25-06-2020 30.6 (14:30) 16.8 (00:00) 23.7 11.39 (17:10) 6.11 (17:10) 5.2 0 0 2.2 3
24-06-2020 33.2 (18:00) 20.1 (00:00) 26.7 13.89 (21:10) 6.67 (21:20) 0 0 0 0 0
23-06-2020 33.1 (18:30) 13.6 (00:00) 23.3 7.5 (17:00) 3.61 (17:00) 0 0 0 0 0
22-06-2020 30.6 (19:00) 16.4 (00:00) 23.5 8.89 (16:10) 5 (01:00) 0 0 0 0 0
21-06-2020 29.9 (16:40) 15.8 (00:00) 22.8 11.67 (20:10) 5.83 (20:10) 0 0 0 0 0
20-06-2020 28.7 (19:30) 12.7 (00:00) 20.7 6.67 (15:20) 3.33 (15:40) 0 0 0 0 0
19-06-2020 27.1 (19:50) 12.8 (00:00) 20 8.06 (14:10) 3.89 (16:40) 0 0 0 0 0
18-06-2020 22.8 (17:20) 10.4 (06:10) 16.6 7.22 (15:40) 3.33 (15:30) 0 0 0 0 0
17-06-2020 20.9 (19:10) 12.5 (00:00) 16.7 8.61 (20:30) 4.17 (20:50) 0.4 0 0.4 0 0
16-06-2020 22.2 (15:40) 13.5 (00:00) 17.9 13.89 (17:30) 6.67 (17:30) 4.6 0 0 1.8 2.8
15-06-2020 23.5 (17:40) 11.9 (00:00) 17.7 7.22 (18:00) 4.17 (18:00) 0 0 0 0 0
14-06-2020 25.1 (17:20) 12.9 (00:00) 19 9.72 (15:20) 4.17 (19:10) 0 0 0 0 0
13-06-2020 21.4 (19:50) 13 (00:00) 17.2 12.5 (02:10) 5.56 (10:20) 0.2 0 0 0.2 0
12-06-2020 19.5 (14:30) 8.7 (00:00) 14.1 12.22 (08:40) 7.22 (16:00) 2.6 0 0 0 2.6

Gráficas

Temp. máximas Temp. mínimas Temp. medias Precipitaciones Rachas de viento máximas Velocidades máximas media en intervalos de 10 minutos

Datos horarios

Fecha y hora oficial Temperatura (ºC) Velocidad del viento (km/h) Dirección del viento Racha (km/h) Dirección de racha Precipitación (mm) Presión (hPa) Tendencia (hPa) Humedad (%)
2020-07-11 23:00:00 23.3 4 Oeste 12 Oeste 0 -- -- 57
2020-07-11 22:00:00 25 6 Norte 18 Norte 0 -- -- 52
2020-07-11 21:00:00 27.8 10 Norte 17 Nordeste 0 -- -- 45
2020-07-11 20:00:00 29.2 5 Norte 15 Norte 0 -- -- 40
2020-07-11 19:00:00 29.3 8 Nordeste 17 Nordeste 0 -- -- 39
2020-07-11 18:00:00 29.4 6 Nordeste 18 Nordeste 0 -- -- 38
2020-07-11 17:00:00 28.3 9 Nordeste 21 Noroeste 0 -- -- 41
2020-07-11 16:00:00 27.5 7 Nordeste 22 Nordeste 0 -- -- 42
2020-07-11 15:00:00 26.6 8 Norte 25 Norte 0 -- -- 44
2020-07-11 14:00:00 24.9 10 Norte 28 Norte 0 -- -- 47
2020-07-11 13:00:00 23.3 13 Norte 31 Norte 0 -- -- 51
2020-07-11 12:00:00 22 12 Norte 26 Norte 0 -- -- 54
2020-07-11 11:00:00 20.9 13 Norte 28 Noroeste 0 -- -- 57
2020-07-11 10:00:00 19.6 14 Norte 27 Norte 0 -- -- 62
2020-07-11 09:00:00 18.1 15 Norte 27 Norte 0 -- -- 65
2020-07-11 08:00:00 17.1 15 Norte 27 Norte 0 -- -- 69
2020-07-11 07:00:00 16.7 12 Noroeste 21 Norte 0 -- -- 71
2020-07-11 06:00:00 17 12 Noroeste 27 Noroeste 0 -- -- 73
2020-07-11 05:00:00 17.4 15 Norte 28 Noroeste 0 -- -- 74
2020-07-11 04:00:00 17.8 15 Norte 28 Norte 0 -- -- 73
2020-07-11 03:00:00 18 12 Norte 24 Norte 0 -- -- 73
2020-07-11 02:00:00 18.2 11 Noroeste 23 Noroeste 0 -- -- 73
2020-07-11 01:00:00 18.5 14 Noroeste 26 Norte 0 -- -- 71
2020-07-11 00:00:00 18.8 14 Norte 30 Norte 0 -- -- 70
2020-07-10 23:00:00 19.4 15 Noroeste 35 Noroeste 0 -- -- 69
2020-07-10 22:00:00 20 10 Norte 34 Norte 0 -- -- 67
2020-07-10 21:00:00 21.6 21 Norte 42 Norte 0 -- -- 63
2020-07-10 20:00:00 24.5 21 Norte 45 Noroeste 0 -- -- 57
2020-07-10 19:00:00 25.9 25 Norte 44 Norte 0 -- -- 54
2020-07-10 18:00:00 27.8 16 Norte 35 Norte 0 -- -- 50
2020-07-10 17:00:00 28.2 17 Norte 32 Este 0 -- -- 47
2020-07-10 16:00:00 28.5 12 Norte 26 Norte 0 -- -- 45
2020-07-10 15:00:00 27.8 15 Norte 29 Nordeste 0 -- -- 46
2020-07-10 14:00:00 26.8 13 Norte 31 Norte 0 -- -- 49
2020-07-10 13:00:00 25.6 12 Norte 29 Norte 0 -- -- 53
2020-07-10 12:00:00 23.8 18 Norte 32 Norte 0 -- -- 57
2020-07-10 11:00:00 23.3 15 Norte 28 Norte 0 -- -- 58
2020-07-10 10:00:00 22 13 Norte 22 Norte 0 -- -- 64
2020-07-10 09:00:00 20.3 4 Norte 12 Noroeste 0 -- -- 72
2020-07-10 08:00:00 18.5 0 Calma 9 Oeste 0 -- -- 81
2020-07-10 07:00:00 17.8 4 Oeste 11 Noroeste 0 -- -- 83
2020-07-10 06:00:00 18.4 5 Noroeste 17 Noroeste 0 -- -- 81
2020-07-10 05:00:00 19.3 5 Norte 12 Norte 0 -- -- 80
2020-07-10 04:00:00 19.9 0 Calma 9 Nordeste 0 -- -- 78
2020-07-10 03:00:00 20.3 3 Nordeste 9 Norte 0 -- -- 70
2020-07-10 02:00:00 20.8 4 Este 21 Oeste 0 -- -- 67
2020-07-10 01:00:00 20.8 12 Oeste 55 Sur 0.2 -- -- 70
2020-07-10 00:00:00 24.2 11 Sur 28 Sudeste 0 -- -- 45
2020-07-09 23:00:00 25.5 5 Este 28 Noroeste 0 -- -- 40
2020-07-09 22:00:00 26.8 12 Oeste 38 Oeste 0 -- -- 36
2020-07-09 21:00:00 27.8 13 Oeste 39 Oeste 0 -- -- 33
2020-07-09 20:00:00 28 17 Oeste 44 Oeste 0 -- -- 34
2020-07-09 19:00:00 30 22 Oeste 45 Oeste 0 -- -- 32
2020-07-09 18:00:00 30.7 2 Noroeste 22 Sur 0 -- -- 34
2020-07-09 17:00:00 30.7 17 Sur 35 Sudeste 0 -- -- 34
2020-07-09 16:00:00 31.4 13 Sudeste 27 Sudeste 0 -- -- 38
2020-07-09 15:00:00 30.7 10 Nordeste 24 Este 0 -- -- 43
2020-07-09 14:00:00 29.7 11 Nordeste 25 Nordeste 0 -- -- 46
2020-07-09 13:00:00 28.4 8 Nordeste 15 Nordeste 0 -- -- 47
2020-07-09 12:00:00 26.7 5 Nordeste 12 Norte 0 -- -- 48
2020-07-09 11:00:00 24.4 3 Norte 10 Noroeste 0 -- -- 57
2020-07-09 10:00:00 22.4 4 Sudoeste 10 Nordeste 0 -- -- 65
2020-07-09 09:00:00 22.4 5 Este 15 Este 0 -- -- 61
2020-07-09 08:00:00 20.5 4 Sudeste 13 Oeste 0 -- -- 69
2020-07-09 07:00:00 19.5 8 Oeste 13 Oeste 0 -- -- 69
2020-07-09 06:00:00 20.3 8 Oeste 13 Oeste 0 -- -- 68
2020-07-09 05:00:00 20.6 6 Sudoeste 14 Noroeste 0 -- -- 68
2020-07-09 04:00:00 21.4 3 Sudoeste 6 Sudoeste 0 -- -- 65
2020-07-09 03:00:00 22.2 4 Sur 10 Oeste 0 -- -- 59
2020-07-09 02:00:00 23.2 4 Sudoeste 12 Oeste 0 -- -- 54
2020-07-09 01:00:00 24.7 7 Oeste 27 Norte 0 -- -- 54
2020-07-09 00:00:00 24.9 9 Noroeste 14 Noroeste 0 -- -- 46
2020-07-08 23:00:00 25.8 11 Noroeste 16 Nordeste 0 -- -- 45
2020-07-08 22:00:00 28.3 2 Sudeste 34 Noroeste 0 -- -- 39
2020-07-08 21:00:00 31.7 6 Sudoeste 34 Sudoeste 0 -- -- 24
2020-07-08 20:00:00 33.7 14 Sudeste 61 Sudoeste 0 -- -- 19
2020-07-08 19:00:00 29.6 10 Sur 26 Sur 0 -- -- 35
2020-07-08 18:00:00 29.9 7 Sur 21 Sur 0 -- -- 36
2020-07-08 17:00:00 30 6 Este 17 Este 0 -- -- 36
2020-07-08 16:00:00 29 9 Sudeste 17 Sudeste 0 -- -- 35
2020-07-08 15:00:00 27.2 6 Sudeste 15 Este 0 -- -- 44
2020-07-08 14:00:00 24.8 4 Norte 20 Nordeste 0 -- -- 48
2020-07-08 13:00:00 23.7 8 Nordeste 21 Este 0 -- -- 53
2020-07-08 12:00:00 24.6 9 Este 19 Este 0 -- -- 51
2020-07-08 11:00:00 21.8 8 Noroeste 20 Norte 0 -- -- 57
2020-07-08 10:00:00 20.7 9 Nordeste 17 Nordeste 0 -- -- 59
2020-07-08 09:00:00 19 4 Sudeste 6 Sudoeste 0 -- -- 63
2020-07-08 08:00:00 15.9 0 Calma 9 Noroeste 0 -- -- 76
2020-07-08 07:00:00 14.3 3 Oeste 12 Oeste 0 -- -- 81
2020-07-08 06:00:00 13.9 7 Oeste 11 Oeste 0 -- -- 81
2020-07-08 05:00:00 14.4 7 Oeste 10 Oeste 0 -- -- 79
2020-07-08 04:00:00 15.4 3 Oeste 9 Oeste 0 -- -- 76
2020-07-08 03:00:00 16.6 0 Calma 5 Oeste 0 -- -- 71
2020-07-08 02:00:00 17.4 0 Calma 11 Oeste 0 -- -- 69
2020-07-08 01:00:00 18.5 6 Oeste 10 Oeste 0 -- -- 63
2020-07-08 00:00:00 20.2 8 Noroeste 12 Noroeste 0 -- -- 57
2020-07-07 23:00:00 22.4 5 Oeste 9 Oeste 0 -- -- 49
2020-07-07 22:00:00 24.4 6 Noroeste 18 Norte 0 -- -- 43
2020-07-07 21:00:00 27 9 Norte 22 Norte 0 -- -- 38
2020-07-07 20:00:00 28.8 8 Norte 26 Norte 0 -- -- 33
2020-07-07 19:00:00 29.1 8 Nordeste 21 Norte 0 -- -- 32
2020-07-07 18:00:00 29.5 10 Norte 28 Noroeste 0 -- -- 30
2020-07-07 17:00:00 29.6 14 Norte 31 Norte 0 -- -- 25
2020-07-07 16:00:00 28.7 13 Norte 29 Norte 0 -- -- 26
2020-07-07 15:00:00 27 12 Norte 26 Norte 0 -- -- 32
2020-07-07 14:00:00 25 14 Norte 26 Norte 0 -- -- 34
2020-07-07 13:00:00 23.4 12 Norte 29 Norte 0 -- -- 38
2020-07-07 12:00:00 21.4 15 Norte 27 Noroeste 0 -- -- 41
2020-07-07 11:00:00 20 15 Norte 29 Norte 0 -- -- 44
2020-07-07 10:00:00 18.1 14 Norte 28 Norte 0 -- -- 49
2020-07-07 09:00:00 15.9 14 Norte 26 Norte 0 -- -- 62
2020-07-07 08:00:00 12 4 Oeste 18 Norte 0 -- -- 74
2020-07-07 07:00:00 11.6 8 Norte 15 Norte 0 -- -- 83
2020-07-07 06:00:00 11.1 4 Noroeste 9 Oeste 0 -- -- 84
2020-07-07 05:00:00 12.1 5 Noroeste 10 Noroeste 0 -- -- 81
2020-07-07 04:00:00 13.3 3 Norte 9 Norte 0 -- -- 79
2020-07-07 03:00:00 14.7 8 Oeste 14 Oeste 0 -- -- 65
2020-07-07 02:00:00 15.6 10 Oeste 18 Noroeste 0 -- -- 71
2020-07-07 01:00:00 16.6 13 Noroeste 22 Oeste 0 -- -- 68
2020-07-07 00:00:00 17.3 12 Noroeste 30 Noroeste 0 -- -- 66
2020-07-06 23:00:00 17.9 8 Noroeste 19 Noroeste 0 -- -- 66
2020-07-06 22:00:00 19.3 9 Noroeste 27 Noroeste 0 -- -- 61
2020-07-06 21:00:00 21.7 14 Noroeste 38 Norte 0 -- -- 55
2020-07-06 20:00:00 23.2 22 Norte 40 Noroeste 0 -- -- 53
2020-07-06 19:00:00 24.8 24 Norte 46 Noroeste 0 -- -- 48
2020-07-06 18:00:00 25.8 25 Norte 46 Norte 0 -- -- 47
2020-07-06 17:00:00 26.9 22 Norte 45 Noroeste 0 -- -- 47
2020-07-06 16:00:00 26.9 21 Norte 46 Noroeste 0 -- -- 45
2020-07-06 15:00:00 26.1 27 Norte 46 Noroeste 0 -- -- 48
2020-07-06 14:00:00 25.8 19 Norte 52 Norte 0 -- -- 51
2020-07-06 13:00:00 24.7 24 Norte 42 Norte 0 -- -- 54
2020-07-06 12:00:00 23.8 19 Norte 39 Noroeste 0 -- -- 56
2020-07-06 11:00:00 23.4 21 Norte 39 Norte 0 -- -- 58
2020-07-06 10:00:00 22.3 21 Norte 41 Noroeste 0 -- -- 61
2020-07-06 09:00:00 21.8 16 Noroeste 33 Noroeste 0 -- -- 61
2020-07-06 08:00:00 18.4 5 Oeste 10 Noroeste 0 -- -- 71
2020-07-06 07:00:00 17.1 6 Norte 14 Norte 0 -- -- 71
2020-07-06 06:00:00 18 5 Norte 10 Oeste 0 -- -- 71
2020-07-06 05:00:00 18.7 8 Oeste 12 Noroeste 0 -- -- 69
2020-07-06 04:00:00 19.8 8 Noroeste 21 Oeste 0 -- -- 65
2020-07-06 03:00:00 20.6 15 Noroeste 27 Oeste 0 -- -- 62
2020-07-06 02:00:00 20.4 9 Oeste 16 Oeste 0 -- -- 62
2020-07-06 01:00:00 21.1 9 Oeste 18 Noroeste 0 -- -- 60
2020-07-06 00:00:00 22.7 13 Noroeste 24 Noroeste 0 -- -- 54
2020-07-05 23:00:00 23.3 10 Noroeste 24 Norte 0 -- -- 52
2020-07-05 22:00:00 25 13 Noroeste 34 Norte 0 -- -- 47
2020-07-05 21:00:00 27.7 15 Norte 33 Norte 0 -- -- 42
2020-07-05 20:00:00 30.2 17 Norte 34 Norte 0 -- -- 40
2020-07-05 19:00:00 32.2 13 Norte 31 Norte 0 -- -- 35
2020-07-05 18:00:00 32.9 14 Norte 29 Norte 0 -- -- 32
2020-07-05 17:00:00 32 12 Norte 34 Norte 0 -- -- 32
2020-07-05 16:00:00 31.5 14 Norte 28 Norte 0 -- -- 33
2020-07-05 15:00:00 30.8 14 Norte 24 Norte 0 -- -- 32
2020-07-05 14:00:00 29.7 10 Norte 29 Norte 0 -- -- 35
2020-07-05 13:00:00 28.9 14 Norte 26 Norte 0 -- -- 37
2020-07-05 12:00:00 27.6 14 Norte 27 Norte 0 -- -- 38
2020-07-05 11:00:00 26 14 Norte 26 Norte 0 -- -- 43
2020-07-05 10:00:00 25.2 9 Norte 16 Norte 0 -- -- 44
2020-07-05 09:00:00 23.3 4 Nordeste 12 Oeste 0 -- -- 53
2020-07-05 08:00:00 20.1 8 Oeste 15 Oeste 0 -- -- 59
2020-07-05 07:00:00 18 8 Oeste 17 Oeste 0 -- -- 62
2020-07-05 06:00:00 17.7 12 Oeste 15 Oeste 0 -- -- 61
2020-07-05 05:00:00 18.3 9 Oeste 18 Oeste 0 -- -- 57
2020-07-05 04:00:00 18.1 8 Oeste 15 Oeste 0 -- -- 58
2020-07-05 03:00:00 17.8 11 Oeste 17 Oeste 0 -- -- 62
2020-07-05 02:00:00 18.2 11 Oeste 16 Oeste 0 -- -- 62
2020-07-05 01:00:00 18.9 9 Oeste 14 Oeste 0 -- -- 59
2020-07-05 00:00:00 20.5 10 Oeste 15 Noroeste 0 -- -- 51
2020-07-04 23:00:00 21.1 9 Noroeste 17 Noroeste 0 -- -- 48
2020-07-04 22:00:00 23.5 8 Noroeste 23 Norte 0 -- -- 44
2020-07-04 21:00:00 26.6 13 Norte 28 Norte 0 -- -- 37
2020-07-04 20:00:00 28.7 15 Norte 31 Norte 0 -- -- 28
2020-07-04 19:00:00 29.7 16 Noroeste 31 Norte 0 -- -- 25
2020-07-04 18:00:00 29.5 18 Norte 36 Norte 0 -- -- 25
2020-07-04 17:00:00 29.2 16 Norte 31 Norte 0 -- -- 24
2020-07-04 16:00:00 28.6 16 Norte 32 Norte 0 -- -- 24
2020-07-04 15:00:00 27.9 13 Norte 30 Norte 0 -- -- 25
2020-07-04 14:00:00 26.8 15 Norte 28 Norte 0 -- -- 26
2020-07-04 13:00:00 25.1 13 Norte 28 Norte 0 -- -- 30
2020-07-04 12:00:00 23 12 Norte 24 Norte 0 -- -- 37
2020-07-04 11:00:00 21.3 13 Norte 21 Norte 0 -- -- 47
2020-07-04 10:00:00 18.9 10 Norte 18 Norte 0 -- -- 55
2020-07-04 09:00:00 16.4 5 Oeste 15 Oeste 0 -- -- 61
2020-07-04 08:00:00 13.7 4 Oeste 10 Oeste 0 -- -- 71
2020-07-04 07:00:00 11.6 4 Sudoeste 12 Oeste 0 -- -- 80
2020-07-04 06:00:00 11.5 8 Oeste 19 Oeste 0 -- -- 81
2020-07-04 05:00:00 11.5 9 Oeste 16 Oeste 0 -- -- 81
2020-07-04 04:00:00 12.5 8 Oeste 17 Oeste 0 -- -- 77
2020-07-04 03:00:00 13.3 6 Oeste 14 Oeste 0 -- -- 73
2020-07-04 02:00:00 13.7 5 Oeste 14 Oeste 0 -- -- 72
2020-07-04 01:00:00 15 8 Noroeste 24 Noroeste 0 -- -- 65
2020-07-04 00:00:00 15.7 10 Noroeste 24 Norte 0 -- -- 61
2020-07-03 23:00:00 16.6 8 Noroeste 23 Norte 0 -- -- 60
2020-07-03 22:00:00 18.4 12 Norte 23 Norte 0 -- -- 54
2020-07-03 21:00:00 21 15 Norte 31 Noroeste 0 -- -- 48
2020-07-03 20:00:00 22.2 17 Norte 40 Noroeste 0 -- -- 45
2020-07-03 19:00:00 23.1 19 Norte 38 Norte 0 -- -- 45
2020-07-03 18:00:00 23.8 19 Norte 36 Norte 0 -- -- 43
2020-07-03 17:00:00 24 21 Norte 36 Norte 0 -- -- 39
2020-07-03 16:00:00 23.9 17 Norte 38 Noroeste 0 -- -- 40
2020-07-03 15:00:00 23 18 Norte 37 Noroeste 0 -- -- 41
2020-07-03 14:00:00 22 17 Norte 39 Norte 0 -- -- 45
2020-07-03 13:00:00 21.3 18 Noroeste 35 Noroeste 0 -- -- 46
2020-07-03 12:00:00 19.7 18 Norte 38 Norte 0 -- -- 52
2020-07-03 11:00:00 18.9 18 Norte 33 Norte 0 -- -- 55
2020-07-03 10:00:00 17.9 15 Norte 29 Noroeste 0 -- -- 60
2020-07-03 09:00:00 17 12 Noroeste 23 Noroeste 0 -- -- 66
2020-07-03 08:00:00 16.1 12 Noroeste 32 Noroeste 0 -- -- 70
2020-07-03 07:00:00 15 10 Noroeste 18 Oeste 0 -- -- 75
2020-07-03 06:00:00 14.2 11 Noroeste 27 Noroeste 0 -- -- 76
2020-07-03 05:00:00 14.6 11 Noroeste 25 Oeste 0 -- -- 78
2020-07-03 04:00:00 15 13 Noroeste 26 Noroeste 0 -- -- 77
2020-07-03 03:00:00 15.5 11 Noroeste 25 Noroeste 0 -- -- 75
2020-07-03 02:00:00 16.1 15 Noroeste 30 Noroeste 0 -- -- 70
2020-07-03 01:00:00 16.2 15 Noroeste 32 Noroeste 0 -- -- 70
2020-07-03 00:00:00 16.5 16 Noroeste 30 Noroeste 0 -- -- 71
2020-07-02 23:00:00 16.9 15 Noroeste 38 Noroeste 0 -- -- 69
2020-07-02 22:00:00 17.5 17 Noroeste 42 Noroeste 0 -- -- 68
2020-07-02 21:00:00 18.5 18 Norte 39 Noroeste 0 -- -- 65
2020-07-02 20:00:00 19.9 19 Norte 41 Noroeste 0 -- -- 63
2020-07-02 19:00:00 21.7 22 Norte 41 Norte 0 -- -- 58
2020-07-02 18:00:00 23.1 20 Norte 42 Noroeste 0 -- -- 56
2020-07-02 17:00:00 24.5 18 Norte 39 Norte 0 -- -- 52
2020-07-02 16:00:00 26.3 19 Norte 35 Noroeste 0 -- -- 50
2020-07-02 15:00:00 24.9 16 Norte 31 Norte 0 -- -- 52
2020-07-02 14:00:00 25 14 Norte 28 Norte 0 -- -- 54
2020-07-02 13:00:00 23.6 11 Norte 28 Norte 0 -- -- 58
2020-07-02 12:00:00 21.6 9 Norte 22 Norte 0 -- -- 65
2020-07-02 11:00:00 20.4 9 Norte 21 Norte 0 -- -- 69
2020-07-02 10:00:00 19 6 Norte 22 Norte 0 -- -- 74
2020-07-02 09:00:00 18.4 8 Norte 21 Norte 0 -- -- 75
2020-07-02 08:00:00 17.8 10 Norte 19 Norte 0 -- -- 79
2020-07-02 07:00:00 17.5 8 Noroeste 13 Norte 0 -- -- 81
2020-07-02 06:00:00 17.5 5 Noroeste 14 Noroeste 0 -- -- 81
2020-07-02 05:00:00 18.2 8 Noroeste 12 Noroeste 0 -- -- 79
2020-07-02 04:00:00 18.9 5 Noroeste 16 Noroeste 0 -- -- 76
2020-07-02 03:00:00 18.9 7 Noroeste 18 Norte 0 -- -- 76
2020-07-02 02:00:00 19.2 8 Noroeste 23 Norte 0 -- -- 74
2020-07-02 01:00:00 19.2 8 Noroeste 22 Norte 0 -- -- 75
2020-07-02 00:00:00 18.9 12 Norte 28 Norte 0 -- -- 76
2020-07-01 23:00:00 19.6 6 Noroeste 25 Nordeste 0 -- -- 75
2020-07-01 22:00:00 21 10 Norte 26 Norte 0 -- -- 71
2020-07-01 21:00:00 23.1 13 Norte 29 Norte 0 -- -- 67
2020-07-01 20:00:00 24.1 13 Norte 24 Noroeste 0 -- -- 66
2020-07-01 19:00:00 24.2 14 Norte 48 Norte 1.6 -- -- 70
2020-07-01 18:00:00 27.5 24 Norte 42 Norte 0.6 -- -- 60
2020-07-01 17:00:00 31.4 13 Norte 28 Norte 0 -- -- 44
2020-07-01 16:00:00 29.9 10 Norte 24 Norte 0 -- -- 50
2020-07-01 15:00:00 30.2 8 Norte 17 Nordeste 0 -- -- 51
2020-07-01 14:00:00 29.2 8 Este 18 Este 0 -- -- 56
2020-07-01 13:00:00 27.3 8 Nordeste 17 Nordeste 0 -- -- 59
2020-07-01 12:00:00 26.5 7 Nordeste 17 Nordeste 0 -- -- 63
2020-07-01 11:00:00 25.4 8 Nordeste 15 Nordeste 0 -- -- 65
2020-07-01 10:00:00 24.2 3 Este 9 Nordeste 0 -- -- 68
2020-07-01 09:00:00 22.5 3 Este 6 Este 0 -- -- 73
2020-07-01 08:00:00 20 4 Oeste 10 Oeste 0 -- -- 78
2020-07-01 07:00:00 19 5 Oeste 9 Oeste 0 -- -- 79
2020-07-01 06:00:00 18.8 2 Sudoeste 10 Oeste 0 -- -- 80
2020-07-01 05:00:00 19.4 6 Oeste 10 Oeste 0 -- -- 77
2020-07-01 04:00:00 20 3 Sudoeste 8 Este 0 -- -- 76
2020-07-01 03:00:00 20.6 6 Noroeste 10 Noroeste 0 -- -- 72
2020-07-01 02:00:00 21.4 5 Oeste 11 Oeste 0 -- -- 68
2020-07-01 01:00:00 22.4 4 Oeste 13 Oeste 0 -- -- 65
2020-07-01 00:00:00 23.4 6 Sur 15 Oeste 0 -- -- 61
2020-06-30 23:00:00 23 10 Oeste 17 Oeste 0 -- -- 64
2020-06-30 22:00:00 24.5 4 Oeste 14 Oeste 0 -- -- 58
2020-06-30 21:00:00 26.1 3 Sudoeste 14 Noroeste 0 -- -- 52
2020-06-30 20:00:00 27.4 8 Noroeste 15 Noroeste 0 -- -- 47
2020-06-30 19:00:00 29.2 4 Norte 11 Noroeste 0 -- -- 43
2020-06-30 18:00:00 28.6 6 Norte 11 Norte 0 -- -- 44
2020-06-30 17:00:00 27.4 5 Nordeste 16 Nordeste 0 -- -- 46
2020-06-30 16:00:00 28.9 11 Nordeste 20 Nordeste 0 -- -- 39
2020-06-30 15:00:00 28.6 8 Este 18 Este 0 -- -- 40
2020-06-30 14:00:00 26.8 8 Nordeste 15 Este 0 -- -- 40
2020-06-30 13:00:00 25.1 5 Nordeste 15 Nordeste 0 -- -- 41
2020-06-30 12:00:00 23.4 5 Nordeste 13 Nordeste 0 -- -- 50
2020-06-30 11:00:00 22 6 Este 14 Nordeste 0 -- -- 56
2020-06-30 10:00:00 19.7 5 Nordeste 13 Norte 0 -- -- 72
2020-06-30 09:00:00 18.7 5 Nordeste 9 Este 0 -- -- 77
2020-06-30 08:00:00 16 3 Oeste 9 Noroeste 0 -- -- 82
2020-06-30 07:00:00 14.5 0 Calma 6 Oeste 0 -- -- 85
2020-06-30 06:00:00 14.5 4 Oeste 6 Oeste 0 -- -- 88
2020-06-30 05:00:00 14.8 3 Oeste 6 Oeste 0 -- -- 88
2020-06-30 04:00:00 15.4 2 Oeste 4 Noroeste 0 -- -- 84
2020-06-30 03:00:00 16.6 0 Calma 5 Sudeste 0 -- -- 80
2020-06-30 02:00:00 17.4 0 Calma 6 Norte 0 -- -- 77
2020-06-30 01:00:00 18.1 4 Norte 15 Norte 0 -- -- 74
2020-06-30 00:00:00 19.1 5 Noroeste 19 Noroeste 0 -- -- 70
2020-06-29 23:00:00 20.4 8 Norte 15 Norte 0 -- -- 67
2020-06-29 22:00:00 21.9 6 Norte 32 Norte 0 -- -- 63
2020-06-29 21:00:00 23.8 16 Norte 32 Norte 0 -- -- 58
2020-06-29 20:00:00 25.7 17 Norte 36 Norte 0 -- -- 55
2020-06-29 19:00:00 27 16 Norte 33 Norte 0 -- -- 51
2020-06-29 18:00:00 27.8 13 Norte 32 Norte 0 -- -- 50
2020-06-29 17:00:00 28 13 Norte 32 Norte 0 -- -- 50
2020-06-29 16:00:00 27.6 12 Nordeste 24 Norte 0 -- -- 51
2020-06-29 15:00:00 27 10 Norte 23 Norte 0 -- -- 52
2020-06-29 14:00:00 25.6 9 Norte 26 Norte 0 -- -- 58
2020-06-29 13:00:00 25.1 10 Norte 22 Norte 0 -- -- 58
2020-06-29 12:00:00 23.3 10 Norte 26 Norte 0 -- -- 62
2020-06-29 11:00:00 21.8 13 Norte 25 Noroeste 0 -- -- 66
2020-06-29 10:00:00 21.6 12 Norte 24 Norte 0 -- -- 69
2020-06-29 09:00:00 20.4 11 Norte 22 Norte 0 -- -- 72
2020-06-29 08:00:00 19 4 Este 10 Oeste 0 -- -- 81
2020-06-29 07:00:00 17 6 Oeste 12 Oeste 0 -- -- 86
2020-06-29 06:00:00 17 8 Oeste 12 Oeste 0 -- -- 85
2020-06-29 05:00:00 17.3 9 Oeste 10 Oeste 0 -- -- 84
2020-06-29 04:00:00 18.1 5 Oeste 13 Oeste 0 -- -- 81
2020-06-29 03:00:00 18.6 4 Oeste 14 Noroeste 0 -- -- 78
2020-06-29 02:00:00 19.3 8 Noroeste 22 Norte 0 -- -- 74
2020-06-29 01:00:00 20 9 Noroeste 16 Noroeste 0 -- -- 71
2020-06-29 00:00:00 21.1 8 Noroeste 18 Noroeste 0 -- -- 65
2020-06-28 23:00:00 22.5 9 Noroeste 27 Norte 0 -- -- 60
2020-06-28 22:00:00 24.9 4 Noroeste 26 Norte 0 -- -- 55
2020-06-28 21:00:00 27.3 14 Norte 32 Nordeste 0 -- -- 51
2020-06-28 20:00:00 30.3 8 Norte 19 Noroeste 0 -- -- 44
2020-06-28 19:00:00 30.5 8 Este 14 Norte 0 -- -- 46
2020-06-28 18:00:00 30.4 6 Nordeste 16 Nordeste 0 -- -- 43
2020-06-28 17:00:00 30 2 Sur 14 Sudeste 0 -- -- 44
2020-06-28 16:00:00 29.5 8 Este 19 Nordeste 0 -- -- 47
2020-06-28 15:00:00 28.3 8 Norte 17 Nordeste 0 -- -- 48
2020-06-28 14:00:00 27.1 8 Nordeste 17 Nordeste 0 -- -- 53
2020-06-28 13:00:00 26.1 7 Nordeste 16 Nordeste 0 -- -- 55
2020-06-28 12:00:00 24.8 5 Nordeste 18 Norte 0 -- -- 59
2020-06-28 11:00:00 23.4 8 Norte 17 Norte 0 -- -- 63
2020-06-28 10:00:00 21.5 8 Norte 18 Norte 0 -- -- 69
2020-06-28 09:00:00 19.7 6 Norte 14 Norte 0 -- -- 78
2020-06-28 08:00:00 17.3 3 Sur 13 Noroeste 0 -- -- 88
2020-06-28 07:00:00 16.7 4 Oeste 9 Oeste 0 -- -- 88
2020-06-28 06:00:00 17.3 0 Calma 8 Noroeste 0 -- -- 87
2020-06-28 05:00:00 18.2 3 Oeste 6 Oeste 0 -- -- 83
2020-06-28 04:00:00 18.7 0 Calma 9 Oeste 0 -- -- 82
2020-06-28 03:00:00 19.8 3 Sudoeste 13 Oeste 0 -- -- 78
2020-06-28 02:00:00 20.8 8 Oeste 14 Noroeste 0 -- -- 74
2020-06-28 01:00:00 21.3 3 Oeste 10 Oeste 0 -- -- 73
2020-06-28 00:00:00 22.1 4 Oeste 12 Oeste 0 -- -- 71
2020-06-27 23:00:00 22.9 7 Oeste 12 Oeste 0 -- -- 68
2020-06-27 22:00:00 25.5 8 Oeste 10 Oeste 0 -- -- 58
2020-06-27 21:00:00 27.9 6 Norte 13 Norte 0 -- -- 48
2020-06-27 20:00:00 29 5 Nordeste 12 Nordeste 0 -- -- 43
2020-06-27 19:00:00 29.4 3 Sudeste 16 Norte 0 -- -- 42
2020-06-27 18:00:00 29.1 8 Nordeste 16 Nordeste 0 -- -- 42
2020-06-27 17:00:00 29 5 Este 15 Norte 0 -- -- 43
2020-06-27 16:00:00 28.1 6 Nordeste 19 Nordeste 0 -- -- 46
2020-06-27 15:00:00 27.4 6 Nordeste 18 Nordeste 0 -- -- 52
2020-06-27 14:00:00 26.4 5 Este 20 Este 0 -- -- 55
2020-06-27 13:00:00 24.9 8 Nordeste 18 Nordeste 0 -- -- 59
2020-06-27 12:00:00 23.3 7 Este 19 Nordeste 0 -- -- 68
2020-06-27 11:00:00 22 7 Este 14 Este 0 -- -- 70
2020-06-27 10:00:00 21 5 Este 10 Este 0 -- -- 75
2020-06-27 09:00:00 18.5 0 Calma 7 Sur 0 -- -- 81
2020-06-27 08:00:00 15.9 0 Calma 6 Oeste 0 -- -- 87
2020-06-27 07:00:00 14.9 5 Oeste 9 Oeste 0 -- -- 89
2020-06-27 06:00:00 15.4 3 Sudoeste 6 Noroeste 0 -- -- 90
2020-06-27 05:00:00 15.8 6 Oeste 9 Oeste 0 -- -- 89
2020-06-27 04:00:00 16.3 4 Oeste 11 Oeste 0 -- -- 88
2020-06-27 03:00:00 16.5 8 Oeste 10 Oeste 0 -- -- 88
2020-06-27 02:00:00 17.3 6 Oeste 10 Oeste 0 -- -- 86
2020-06-27 01:00:00 18.1 2 Sudoeste 12 Oeste 0 -- -- 85
2020-06-27 00:00:00 18.9 8 Oeste 11 Oeste 0 -- -- 82
2020-06-26 23:00:00 20.1 3 Noroeste 8 Oeste 0 -- -- 78
2020-06-26 22:00:00 21.7 2 Nordeste 22 Sudeste 0 -- -- 72
2020-06-26 21:00:00 22.5 13 Sudeste 19 Sudeste 0 -- -- 69
2020-06-26 20:00:00 23.2 9 Sur 24 Este 0 -- -- 63
2020-06-26 19:00:00 23.2 8 Sur 24 Sudeste 0 -- -- 71
2020-06-26 18:00:00 20.6 15 Sudeste 32 Sudeste 2.2 -- -- 74
2020-06-26 17:00:00 21.9 4 Sur 18 Este 0.2 -- -- 78
2020-06-26 16:00:00 18.8 13 Este 41 Noroeste 10 -- -- 82
2020-06-26 15:00:00 27.3 15 Nordeste 31 Este 0 -- -- 45
2020-06-26 14:00:00 28.5 17 Este 27 Este 0 -- -- 46
2020-06-26 13:00:00 26.8 10 Este 19 Este 0 -- -- 52
2020-06-26 12:00:00 24.2 8 Nordeste 15 Nordeste 0 -- -- 63
2020-06-26 11:00:00 22.8 4 Este 8 Este 0 -- -- 68
2020-06-26 10:00:00 20.9 4 Nordeste 10 Este 0 -- -- 71
2020-06-26 09:00:00 19.6 2 Este 5 Nordeste 0 -- -- 83
2020-06-26 08:00:00 17.2 0 Calma 13 Oeste 0 -- -- 89
2020-06-26 07:00:00 16.4 7 Oeste 13 Oeste 0 -- -- 89
2020-06-26 06:00:00 17.9 4 Sur 19 Este 0 -- -- 83
2020-06-26 05:00:00 17.6 6 Este 13 Este 0.2 -- -- 86
2020-06-26 04:00:00 17.7 3 Norte 12 Sudeste 0 -- -- 88
2020-06-26 03:00:00 18.4 5 Este 11 Este 0.4 -- -- 88
2020-06-26 02:00:00 18.9 4 Noroeste 14 Sur 0 -- -- 85
2020-06-26 01:00:00 19.4 9 Sudeste 17 Sudeste 0 -- -- 82
2020-06-26 00:00:00 18.7 4 Sur 10 Noroeste 0 -- -- 89
2020-06-25 23:00:00 18.8 4 Oeste 13 Sudoeste 0 -- -- 87
2020-06-25 22:00:00 19 12 Sudoeste 24 Noroeste 1 -- -- 86
2020-06-25 21:00:00 20.5 11 Oeste 34 Nordeste 1.8 -- -- 76
2020-06-25 20:00:00 21.7 8 Oeste 17 Oeste 0.2 -- -- 76
2020-06-25 19:00:00 21.8 4 Sudoeste 34 Oeste 0 -- -- 74
2020-06-25 18:00:00 21.4 12 Oeste 41 Sudoeste 2.2 -- -- 77
2020-06-25 17:00:00 27.6 10 Sur 21 Sudoeste 0 -- -- 53
2020-06-25 16:00:00 29.7 4 Norte 23 Norte 0 -- -- 40
2020-06-25 15:00:00 30.1 12 Nordeste 30 Norte 0 -- -- 43
2020-06-25 14:00:00 30 12 Nordeste 24 Nordeste 0 -- -- 43
2020-06-25 13:00:00 29 6 Sudeste 20 Este 0 -- -- 46
2020-06-25 12:00:00 27.5 7 Este 16 Sudeste 0 -- -- 48
2020-06-25 11:00:00 25.3 6 Nordeste 13 Este 0 -- -- 56
2020-06-25 10:00:00 23.2 6 Nordeste 14 Nordeste 0 -- -- 59
2020-06-25 09:00:00 22.2 3 Sudeste 7 Sudoeste 0 -- -- 60
2020-06-25 08:00:00 18.6 2 Oeste 10 Oeste 0 -- -- 71
2020-06-25 07:00:00 17.4 2 Sudoeste 14 Oeste 0 -- -- 75
2020-06-25 06:00:00 16.8 9 Oeste 13 Oeste 0 -- -- 73
2020-06-25 05:00:00 18.3 0 Calma 6 Sudoeste 0 -- -- 69
2020-06-25 04:00:00 19.4 4 Oeste 13 Oeste 0 -- -- 65
2020-06-25 03:00:00 20.9 7 Oeste 18 Oeste 0 -- -- 59
2020-06-25 02:00:00 23.7 4 Nordeste 37 Sur 0 -- -- 53
2020-06-25 01:00:00 24.2 17 Sur 31 Sur 0 -- -- 53
2020-06-25 00:00:00 23.5 11 Sur 20 Sudeste 0 -- -- 51
2020-06-24 23:00:00 24.9 9 Este 21 Sudeste 0 -- -- 48
2020-06-24 22:00:00 26.2 11 Este 50 Este 0 -- -- 44
2020-06-24 21:00:00 30.6 8 Sudeste 31 Sudeste 0 -- -- 36
2020-06-24 20:00:00 31.6 16 Sudeste 29 Sudeste 0 -- -- 33
2020-06-24 19:00:00 32.4 8 Sur 21 Sur 0 -- -- 29
2020-06-24 18:00:00 33.2 7 Oeste 27 Sudoeste 0 -- -- 28
2020-06-24 17:00:00 32 14 Oeste 36 Oeste 0 -- -- 32
2020-06-24 16:00:00 32.8 14 Oeste 34 Oeste 0 -- -- 29
2020-06-24 15:00:00 31 4 Sudeste 13 Nordeste 0 -- -- 42
2020-06-24 14:00:00 31.2 5 Este 15 Este 0 -- -- 44
2020-06-24 13:00:00 28.8 9 Norte 15 Norte 0 -- -- 50
2020-06-24 12:00:00 27.6 4 Sudeste 13 Este 0 -- -- 52
2020-06-24 11:00:00 26 6 Nordeste 14 Nordeste 0 -- -- 56
2020-06-24 10:00:00 24.4 5 Norte 17 Sudeste 0 -- -- 64
2020-06-24 09:00:00 22.2 5 Sur 14 Sudeste 0 -- -- 71
2020-06-24 08:00:00 20.7 5 Sudeste 12 Sur 0 -- -- 75
2020-06-24 07:00:00 20.4 5 Sudeste 20 Sudeste 0 -- -- 76
2020-06-24 06:00:00 20.6 8 Sur 17 Sur 0 -- -- 75
2020-06-24 05:00:00 21.4 6 Sudoeste 18 Sur 0 -- -- 70
2020-06-24 04:00:00 22.6 12 Sur 22 Sur 0 -- -- 65
2020-06-24 03:00:00 22.6 7 Sudeste 13 Sudeste 0 -- -- 58
2020-06-24 02:00:00 23.2 6 Sudeste 12 Noroeste 0 -- -- 55
2020-06-24 01:00:00 24 2 Oeste 22 Sudoeste 0 -- -- 53
2020-06-24 00:00:00 23 12 Oeste 21 Oeste 0 -- -- 54
2020-06-23 23:00:00 24.5 5 Oeste 9 Oeste 0 -- -- 57
2020-06-23 22:00:00 27.7 2 Oeste 9 Oeste 0 -- -- 50
2020-06-23 21:00:00 28.8 4 Oeste 8 Oeste 0 -- -- 48
2020-06-23 20:00:00 29.5 3 Oeste 9 Sudeste 0 -- -- 45
2020-06-23 19:00:00 32 6 Sudeste 17 Este 0 -- -- 34
2020-06-23 18:00:00 32.8 8 Este 24 Este 0 -- -- 34
2020-06-23 17:00:00 32.5 13 Este 27 Este 0 -- -- 35
2020-06-23 16:00:00 32 10 Este 25 Este 0 -- -- 37
2020-06-23 15:00:00 30.7 8 Este 21 Sudeste 0 -- -- 40
2020-06-23 14:00:00 29.1 5 Sur 21 Nordeste 0 -- -- 42
2020-06-23 13:00:00 27.6 9 Este 19 Nordeste 0 -- -- 44
2020-06-23 12:00:00 24.9 8 Nordeste 17 Nordeste 0 -- -- 50
2020-06-23 11:00:00 23.2 6 Nordeste 11 Nordeste 0 -- -- 53
2020-06-23 10:00:00 21.9 3 Norte 9 Este 0 -- -- 58
2020-06-23 09:00:00 19.4 2 Nordeste 5 Este 0 -- -- 63
2020-06-23 08:00:00 16 2 Oeste 8 Oeste 0 -- -- 72
2020-06-23 07:00:00 13.8 6 Oeste 13 Oeste 0 -- -- 76
2020-06-23 06:00:00 13.8 8 Oeste 13 Oeste 0 -- -- 76
2020-06-23 05:00:00 14 9 Oeste 13 Oeste 0 -- -- 76
2020-06-23 04:00:00 14.8 6 Oeste 10 Noroeste 0 -- -- 75
2020-06-23 03:00:00 15.3 4 Oeste 10 Oeste 0 -- -- 76
2020-06-23 02:00:00 16.8 3 Sudoeste 8 Oeste 0 -- -- 72
2020-06-23 01:00:00 18.1 3 Sudoeste 9 Noroeste 0 -- -- 69
2020-06-23 00:00:00 19.4 3 Oeste 13 Oeste 0 -- -- 66
2020-06-22 23:00:00 20.8 6 Oeste 13 Oeste 0 -- -- 60
2020-06-22 22:00:00 24.4 6 Noroeste 15 Norte 0 -- -- 48
2020-06-22 21:00:00 27.5 10 Norte 22 Norte 0 -- -- 39
2020-06-22 20:00:00 29.2 12 Norte 27 Noroeste 0 -- -- 35
2020-06-22 19:00:00 30.6 14 Norte 29 Norte 0 -- -- 30
2020-06-22 18:00:00 30.3 12 Norte 26 Norte 0 -- -- 31
2020-06-22 17:00:00 29.7 15 Norte 32 Norte 0 -- -- 31
2020-06-22 16:00:00 29.4 13 Norte 30 Norte 0 -- -- 33
2020-06-22 15:00:00 28.3 14 Norte 31 Norte 0 -- -- 35
2020-06-22 14:00:00 26.9 13 Norte 28 Norte 0 -- -- 37
2020-06-22 13:00:00 25 16 Nordeste 29 Norte 0 -- -- 39
2020-06-22 12:00:00 24.4 12 Norte 26 Norte 0 -- -- 50
2020-06-22 11:00:00 23.7 12 Norte 26 Oeste 0 -- -- 52
2020-06-22 10:00:00 21.7 17 Noroeste 26 Oeste 0 -- -- 58
2020-06-22 09:00:00 20.1 14 Noroeste 26 Noroeste 0 -- -- 64
2020-06-22 08:00:00 18.6 13 Noroeste 24 Noroeste 0 -- -- 68
2020-06-22 07:00:00 17.4 11 Oeste 20 Oeste 0 -- -- 72
2020-06-22 06:00:00 17 13 Oeste 21 Oeste 0 -- -- 73
2020-06-22 05:00:00 16.8 9 Oeste 18 Oeste 0 -- -- 73
2020-06-22 04:00:00 16.5 12 Oeste 22 Oeste 0 -- -- 73
2020-06-22 03:00:00 16.5 10 Oeste 15 Oeste 0 -- -- 72
2020-06-22 02:00:00 17.9 14 Noroeste 29 Noroeste 0 -- -- 64
2020-06-22 01:00:00 18.8 18 Noroeste 30 Noroeste 0 -- -- 61
2020-06-22 00:00:00 18.8 13 Noroeste 19 Noroeste 0 -- -- 63
2020-06-21 23:00:00 20.3 6 Noroeste 24 Norte 0 -- -- 56
2020-06-21 22:00:00 21.9 13 Norte 32 Norte 0 -- -- 50
2020-06-21 21:00:00 24.2 13 Norte 42 Norte 0 -- -- 44
2020-06-21 20:00:00 26 19 Norte 38 Norte 0 -- -- 40
2020-06-21 19:00:00 27.4 19 Norte 35 Norte 0 -- -- 38
2020-06-21 18:00:00 28.9 18 Norte 39 Nordeste 0 -- -- 35
2020-06-21 17:00:00 29.5 15 Norte 35 Norte 0 -- -- 35
2020-06-21 16:00:00 29.6 16 Norte 36 Norte 0 -- -- 32
2020-06-21 15:00:00 28.5 13 Norte 27 Norte 0 -- -- 36
2020-06-21 14:00:00 27.7 12 Norte 24 Norte 0 -- -- 35
2020-06-21 13:00:00 26.6 9 Norte 29 Noroeste 0 -- -- 35
2020-06-21 12:00:00 25.9 13 Norte 28 Norte 0 -- -- 32
2020-06-21 11:00:00 24.8 12 Norte 22 Norte 0 -- -- 35
2020-06-21 10:00:00 23.5 12 Norte 20 Norte 0 -- -- 37
2020-06-21 09:00:00 21.1 3 Noroeste 12 Noroeste 0 -- -- 52
2020-06-21 08:00:00 17.8 3 Oeste 11 Oeste 0 -- -- 67
2020-06-21 07:00:00 16 3 Oeste 17 Oeste 0 -- -- 71
2020-06-21 06:00:00 15.9 7 Oeste 18 Oeste 0 -- -- 72
2020-06-21 05:00:00 16 9 Oeste 14 Oeste 0 -- -- 73
2020-06-21 04:00:00 16.9 7 Oeste 13 Oeste 0 -- -- 72
2020-06-21 03:00:00 17.6 4 Oeste 9 Oeste 0 -- -- 69
2020-06-21 02:00:00 17.9 3 Sudoeste 10 Oeste 0 -- -- 68
2020-06-21 01:00:00 18.7 6 Oeste 12 Oeste 0 -- -- 69
2020-06-21 00:00:00 20.6 8 Oeste 13 Oeste 0 -- -- 64
2020-06-20 23:00:00 22.5 7 Oeste 15 Norte 0 -- -- 61
2020-06-20 22:00:00 24.5 10 Norte 15 Norte 0 -- -- 53
2020-06-20 21:00:00 28.2 4 Noroeste 15 Norte 0 -- -- 41
2020-06-20 20:00:00 28.3 7 Norte 19 Nordeste 0 -- -- 40
2020-06-20 19:00:00 28.2 8 Norte 18 Nordeste 0 -- -- 43
2020-06-20 18:00:00 28.2 9 Nordeste 20 Norte 0 -- -- 42
2020-06-20 17:00:00 27.8 10 Nordeste 19 Norte 0 -- -- 44
2020-06-20 16:00:00 27.1 7 Nordeste 24 Este 0 -- -- 46
2020-06-20 15:00:00 26.4 9 Nordeste 20 Nordeste 0 -- -- 47
2020-06-20 14:00:00 25.1 7 Este 17 Este 0 -- -- 50
2020-06-20 13:00:00 23.7 5 Nordeste 14 Este 0 -- -- 53
2020-06-20 12:00:00 21.9 4 Nordeste 15 Este 0 -- -- 59
2020-06-20 11:00:00 20.3 5 Este 14 Nordeste 0 -- -- 67
2020-06-20 10:00:00 18.8 6 Nordeste 12 Este 0 -- -- 70
2020-06-20 09:00:00 17.6 4 Este 7 Sudeste 0 -- -- 73
2020-06-20 08:00:00 14.5 0 Calma 6 Noroeste 0 -- -- 86
2020-06-20 07:00:00 12.7 5 Oeste 10 Oeste 0 -- -- 88
2020-06-20 06:00:00 13.4 4 Oeste 6 Oeste 0 -- -- 86
2020-06-20 05:00:00 14 0 Calma 8 Oeste 0 -- -- 84
2020-06-20 04:00:00 14.7 0 Calma 8 Oeste 0 -- -- 83
2020-06-20 03:00:00 16.2 2 Oeste 10 Oeste 0 -- -- 76
2020-06-20 02:00:00 17.7 4 Noroeste 11 Norte 0 -- -- 67
2020-06-20 01:00:00 18.6 4 Norte 12 Norte 0 -- -- 67
2020-06-20 00:00:00 19.6 6 Noroeste 14 Noroeste 0 -- -- 65
2020-06-19 23:00:00 20.9 6 Noroeste 17 Norte 0 -- -- 64
2020-06-19 22:00:00 22.8 9 Noroeste 17 Norte 0 -- -- 58
2020-06-19 21:00:00 25.8 6 Norte 16 Norte 0 -- -- 46
2020-06-19 20:00:00 26.7 6 Nordeste 16 Nordeste 0 -- -- 44
2020-06-19 19:00:00 26.7 7 Norte 17 Nordeste 0 -- -- 44
2020-06-19 18:00:00 26.5 7 Nordeste 21 Este 0 -- -- 45
2020-06-19 17:00:00 26.2 10 Nordeste 27 Nordeste 0 -- -- 46
2020-06-19 16:00:00 26 12 Este 25 Este 0 -- -- 47
2020-06-19 15:00:00 25.4 9 Este 29 Este 0 -- -- 46
2020-06-19 14:00:00 24 9 Este 26 Este 0 -- -- 48
2020-06-19 13:00:00 22.6 10 Este 21 Nordeste 0 -- -- 49
2020-06-19 12:00:00 20.9 5 Sudeste 14 Sudeste 0 -- -- 53
2020-06-19 11:00:00 18.6 5 Este 12 Nordeste 0 -- -- 58
2020-06-19 10:00:00 17 6 Este 12 Nordeste 0 -- -- 64
2020-06-19 09:00:00 15 0 Calma 4 Norte 0 -- -- 72
2020-06-19 08:00:00 13.7 0 Calma 3 Noroeste 0 -- -- 79
2020-06-19 07:00:00 13.5 4 Noroeste 14 Oeste 0 -- -- 78
2020-06-19 06:00:00 13.4 6 Oeste 14 Oeste 0 -- -- 76
2020-06-19 05:00:00 12.9 4 Oeste 13 Sudoeste 0 -- -- 80
2020-06-19 04:00:00 13.6 5 Oeste 15 Oeste 0 -- -- 78
2020-06-19 03:00:00 14.1 6 Oeste 10 Oeste 0 -- -- 76
2020-06-19 02:00:00 14.7 5 Sudoeste 8 Oeste 0 -- -- 73
2020-06-19 01:00:00 16 0 Calma 13 Noroeste 0 -- -- 69
2020-06-19 00:00:00 17 9 Noroeste 15 Noroeste 0 -- -- 66
2020-06-18 23:00:00 18.5 6 Noroeste 15 Norte 0 -- -- 61
2020-06-18 22:00:00 19.4 8 Noroeste 18 Norte 0 -- -- 57
2020-06-18 21:00:00 20.6 5 Norte 13 Norte 0 -- -- 52
2020-06-18 20:00:00 21.7 5 Norte 15 Norte 0 -- -- 49
2020-06-18 19:00:00 22.2 9 Norte 20 Norte 0 -- -- 48
2020-06-18 18:00:00 22.6 7 Norte 21 Norte 0 -- -- 44
2020-06-18 17:00:00 22.6 8 Norte 23 Norte 0 -- -- 45
2020-06-18 16:00:00 21.8 6 Nordeste 26 Norte 0 -- -- 48
2020-06-18 15:00:00 21 8 Nordeste 23 Nordeste 0 -- -- 49
2020-06-18 14:00:00 20.1 5 Nordeste 22 Nordeste 0 -- -- 52
2020-06-18 13:00:00 19.6 7 Norte 20 Nordeste 0 -- -- 52
2020-06-18 12:00:00 18 5 Este 18 Nordeste 0 -- -- 55
2020-06-18 11:00:00 16.8 8 Norte 21 Nordeste 0 -- -- 61
2020-06-18 10:00:00 15.9 11 Norte 21 Noroeste 0 -- -- 63
2020-06-18 09:00:00 13.2 4 Sudoeste 8 Sudoeste 0 -- -- 78
2020-06-18 08:00:00 10.9 2 Sur 12 Oeste 0 -- -- 85
2020-06-18 07:00:00 10.6 8 Oeste 14 Oeste 0 -- -- 85
2020-06-18 06:00:00 10.5 6 Oeste 14 Oeste 0 -- -- 85
2020-06-18 05:00:00 11.3 3 Sudoeste 8 Sudoeste 0 -- -- 83
2020-06-18 04:00:00 12.2 2 Oeste 9 Sudoeste 0 -- -- 79
2020-06-18 03:00:00 12.7 6 Noroeste 9 Oeste 0 -- -- 79
2020-06-18 02:00:00 13.2 4 Oeste 11 Noroeste 0 -- -- 79
2020-06-18 01:00:00 13.6 6 Oeste 10 Noroeste 0 -- -- 77
2020-06-18 00:00:00 14.6 5 Noroeste 14 Noroeste 0 -- -- 73
2020-06-17 23:00:00 15.7 4 Noroeste 19 Norte 0 -- -- 68
2020-06-17 22:00:00 16.8 12 Norte 22 Norte 0 -- -- 63
2020-06-17 21:00:00 18.8 14 Norte 31 Norte 0 -- -- 58
2020-06-17 20:00:00 20.1 8 Norte 19 Noroeste 0 -- -- 51
2020-06-17 19:00:00 20.8 8 Norte 18 Nordeste 0 -- -- 49
2020-06-17 18:00:00 20.3 12 Norte 30 Norte 0 -- -- 48
2020-06-17 17:00:00 19.9 9 Norte 27 Norte 0 -- -- 54
2020-06-17 16:00:00 19.1 10 Norte 23 Norte 0 -- -- 55
2020-06-17 15:00:00 18.6 6 Norte 19 Norte 0 -- -- 57
2020-06-17 14:00:00 17.7 5 Norte 15 Noroeste 0 -- -- 59
2020-06-17 13:00:00 16.6 8 Norte 15 Noroeste 0 -- -- 63
2020-06-17 12:00:00 14.2 8 Sudoeste 14 Sudoeste 0.2 -- -- 82
2020-06-17 11:00:00 13.8 4 Oeste 8 Noroeste 0 -- -- 82
2020-06-17 10:00:00 13.5 4 Oeste 9 Noroeste 0.2 -- -- 86
2020-06-17 09:00:00 13.4 3 Noroeste 8 Noroeste 0 -- -- 88
2020-06-17 08:00:00 13.1 0 Calma 8 Noroeste 0 -- -- 89
2020-06-17 07:00:00 12.6 3 Noroeste 9 Oeste 0 -- -- 90
2020-06-17 06:00:00 12.5 5 Oeste 8 Oeste 0 -- -- 90
2020-06-17 05:00:00 12.8 3 Oeste 8 Oeste 0 -- -- 88
2020-06-17 04:00:00 13 4 Oeste 9 Oeste 0 -- -- 90
2020-06-17 03:00:00 13.1 6 Oeste 9 Oeste 0 -- -- 91
2020-06-17 02:00:00 13.2 4 Oeste 8 Oeste 0 -- -- 90
2020-06-17 01:00:00 13.3 0 Calma 17 Norte 0 -- -- 89
2020-06-17 00:00:00 13.7 8 Noroeste 17 Noroeste 0.6 -- -- 90
2020-06-16 23:00:00 13.9 9 Noroeste 17 Noroeste 1 -- -- 90
2020-06-16 22:00:00 14.1 7 Oeste 11 Oeste 0 -- -- 89
2020-06-16 21:00:00 14.8 6 Oeste 11 Noroeste 0 -- -- 87
2020-06-16 20:00:00 14.9 6 Oeste 21 Noroeste 1 -- -- 87
2020-06-16 19:00:00 15.4 9 Noroeste 40 Noroeste 0.2 -- -- 80
2020-06-16 18:00:00 16.8 17 Norte 50 Noroeste 0.2 -- -- 75
2020-06-16 17:00:00 20.9 5 Norte 19 Norte 1.6 -- -- 60
2020-06-16 16:00:00 21.9 4 Nordeste 14 Este 0 -- -- 48
2020-06-16 15:00:00 20.3 10 Norte 23 Norte 0 -- -- 56
2020-06-16 14:00:00 21.1 5 Sudoeste 13 Nordeste 0 -- -- 52
2020-06-16 13:00:00 20.9 8 Este 15 Norte 0 -- -- 54
2020-06-16 12:00:00 18.6 6 Nordeste 16 Nordeste 0 -- -- 61
2020-06-16 11:00:00 17.4 6 Este 12 Este 0 -- -- 64
2020-06-16 10:00:00 15.5 3 Sur 6 Sur 0 -- -- 69
2020-06-16 09:00:00 14.8 0 Calma 6 Nordeste 0 -- -- 76
2020-06-16 08:00:00 14.1 0 Calma 5 Noroeste 0 -- -- 84
2020-06-16 07:00:00 13.6 3 Oeste 6 Oeste 0 -- -- 85
2020-06-16 06:00:00 13.8 3 Oeste 6 Oeste 0 -- -- 85
2020-06-16 05:00:00 14.6 0 Calma 3 Oeste 0 -- -- 80
2020-06-16 04:00:00 14.9 0 Calma 6 Oeste 0 -- -- 76
2020-06-16 03:00:00 15.2 4 Noroeste 9 Oeste 0 -- -- 71
2020-06-16 02:00:00 15.5 8 Noroeste 18 Noroeste 0 -- -- 66
2020-06-16 01:00:00 16.3 8 Noroeste 16 Noroeste 0 -- -- 66
2020-06-16 00:00:00 17.3 9 Noroeste 14 Noroeste 0 -- -- 65
2020-06-15 23:00:00 18.2 7 Noroeste 18 Noroeste 0 -- -- 62
2020-06-15 22:00:00 19.3 10 Noroeste 16 Norte 0 -- -- 59
2020-06-15 21:00:00 21.4 7 Norte 16 Norte 0 -- -- 52
2020-06-15 20:00:00 22.1 5 Norte 22 Norte 0 -- -- 49
2020-06-15 19:00:00 22.7 11 Norte 26 Norte 0 -- -- 49
2020-06-15 18:00:00 23.2 15 Norte 26 Norte 0 -- -- 48
2020-06-15 17:00:00 23.4 7 Norte 15 Nordeste 0 -- -- 46
2020-06-15 16:00:00 23.2 5 Nordeste 13 Norte 0 -- -- 45
2020-06-15 15:00:00 22.7 6 Norte 14 Norte 0 -- -- 47
2020-06-15 14:00:00 22.3 6 Nordeste 21 Nordeste 0 -- -- 48
2020-06-15 13:00:00 20.7 8 Nordeste 20 Nordeste 0 -- -- 50
2020-06-15 12:00:00 19.7 10 Nordeste 21 Nordeste 0 -- -- 56
2020-06-15 11:00:00 17.8 6 Nordeste 14 Norte 0 -- -- 61
2020-06-15 10:00:00 16.6 7 Nordeste 13 Norte 0 -- -- 62
2020-06-15 09:00:00 15.4 2 Nordeste 7 Sudoeste 0 -- -- 66
2020-06-15 08:00:00 13.2 2 Oeste 11 Oeste 0 -- -- 78
2020-06-15 07:00:00 12 5 Oeste 9 Oeste 0 -- -- 82
2020-06-15 06:00:00 12.1 4 Oeste 8 Oeste 0 -- -- 80
2020-06-15 05:00:00 12.2 3 Oeste 9 Noroeste 0 -- -- 80
2020-06-15 04:00:00 12.1 3 Oeste 9 Oeste 0 -- -- 80
2020-06-15 03:00:00 13.8 0 Calma 8 Noroeste 0 -- -- 71
2020-06-15 02:00:00 14.1 4 Oeste 13 Noroeste 0 -- -- 69
2020-06-15 01:00:00 15.3 6 Oeste 10 Oeste 0 -- -- 68
2020-06-15 00:00:00 16.7 5 Oeste 12 Noroeste 0 -- -- 61
2020-06-14 23:00:00 17.8 5 Noroeste 18 Noroeste 0 -- -- 60
2020-06-14 22:00:00 19 10 Norte 25 Norte 0 -- -- 58
2020-06-14 21:00:00 20.9 10 Norte 23 Norte 0 -- -- 46
2020-06-14 20:00:00 21.7 13 Norte 26 Norte 0 -- -- 45
2020-06-14 19:00:00 22.8 12 Norte 25 Noroeste 0 -- -- 44
2020-06-14 18:00:00 23.3 9 Norte 35 Oeste 0 -- -- 44
2020-06-14 17:00:00 24.8 13 Oeste 27 Oeste 0 -- -- 34
2020-06-14 16:00:00 24.5 9 Oeste 35 Noroeste 0 -- -- 37
2020-06-14 15:00:00 23.4 5 Este 17 Este 0 -- -- 44
2020-06-14 14:00:00 22.3 7 Este 17 Este 0 -- -- 48
2020-06-14 13:00:00 21.1 9 Nordeste 17 Este 0 -- -- 52
2020-06-14 12:00:00 19.6 5 Nordeste 13 Nordeste 0 -- -- 58
2020-06-14 11:00:00 17 5 Nordeste 11 Nordeste 0 -- -- 69
2020-06-14 10:00:00 16.1 4 Norte 12 Norte 0 -- -- 73
2020-06-14 09:00:00 15.1 3 Este 8 Nordeste 0 -- -- 78
2020-06-14 08:00:00 13.5 4 Noroeste 6 Noroeste 0 -- -- 79
2020-06-14 07:00:00 13.1 0 Calma 8 Sur 0 -- -- 80
2020-06-14 06:00:00 13.4 4 Sudoeste 5 Sudoeste 0 -- -- 79
2020-06-14 05:00:00 13.7 5 Oeste 11 Oeste 0 -- -- 75
2020-06-14 04:00:00 14.3 8 Oeste 12 Oeste 0 -- -- 69
2020-06-14 03:00:00 14.5 4 Oeste 13 Oeste 0 -- -- 68
2020-06-14 02:00:00 14.3 3 Oeste 10 Oeste 0 -- -- 70
2020-06-14 01:00:00 14.7 2 Oeste 17 Noroeste 0 -- -- 67
2020-06-14 00:00:00 15.1 7 Oeste 15 Oeste 0 -- -- 61
2020-06-13 23:00:00 14.8 7 Oeste 14 Noroeste 0 -- -- 69
2020-06-13 22:00:00 16.9 5 Oeste 15 Oeste 0 -- -- 64
2020-06-13 21:00:00 20.4 3 Noroeste 10 Norte 0 -- -- 52
2020-06-13 20:00:00 21.1 6 Norte 13 Nordeste 0 -- -- 45
2020-06-13 19:00:00 20.7 3 Nordeste 9 Este 0 -- -- 48
2020-06-13 18:00:00 20 4 Norte 10 Nordeste 0 -- -- 49
2020-06-13 17:00:00 19.8 4 Norte 15 Nordeste 0 -- -- 49
2020-06-13 16:00:00 19.5 7 Nordeste 16 Nordeste 0 -- -- 52
2020-06-13 15:00:00 17.6 8 Nordeste 13 Nordeste 0 -- -- 58
2020-06-13 14:00:00 16.6 5 Este 12 Nordeste 0.2 -- -- 70
2020-06-13 13:00:00 16.5 5 Nordeste 15 Nordeste 0 -- -- 63
2020-06-13 12:00:00 16.4 7 Nordeste 15 Norte 0 -- -- 62
2020-06-13 11:00:00 16 8 Nordeste 37 Oeste 0 -- -- 63
2020-06-13 10:00:00 16 17 Oeste 35 Oeste 0 -- -- 57
2020-06-13 09:00:00 15.2 16 Oeste 37 Oeste 0 -- -- 63
2020-06-13 08:00:00 14.2 14 Oeste 32 Oeste 0 -- -- 69
2020-06-13 07:00:00 13.4 12 Oeste 33 Sur 0 -- -- 71
2020-06-13 06:00:00 13.6 15 Oeste 37 Sudoeste 0 -- -- 68
2020-06-13 05:00:00 13.3 6 Oeste 23 Oeste 0 -- -- 70
2020-06-13 04:00:00 13.6 8 Oeste 39 Oeste 0 -- -- 69
2020-06-13 03:00:00 13.7 14 Oeste 45 Oeste 0 -- -- 70
2020-06-13 02:00:00 13.9 16 Sudoeste 34 Sudoeste 0 -- -- 68
2020-06-13 01:00:00 13.5 10 Sudoeste 20 Sudoeste 0 -- -- 71
2020-06-13 00:00:00 13.2 15 Oeste 24 Noroeste 0 -- -- 73
2020-06-12 23:00:00 13.1 16 Oeste 28 Oeste 0 -- -- 74
2020-06-12 22:00:00 13.4 13 Oeste 30 Oeste 0 -- -- 76
2020-06-12 21:00:00 14.8 10 Oeste 17 Noroeste 0 -- -- 80
2020-06-12 20:00:00 14.2 9 Sudoeste 38 Sudoeste 2.6 -- -- 82
2020-06-12 19:00:00 18.8 7 Oeste 22 Oeste 0 -- -- 52
2020-06-12 18:00:00 18 8 Sudoeste 33 Oeste 0 -- -- 52
2020-06-12 17:00:00 17.3 18 Sudoeste 41 Sudoeste 0 -- -- 54
2020-06-12 16:00:00 15.7 26 Oeste 44 Oeste 0 -- -- 64
2020-06-12 15:00:00 18.3 13 Sudoeste 33 Sudoeste 0 -- -- 46
2020-06-12 14:00:00 18.1 17 Sudoeste 42 Sudoeste 0 -- -- 49
2020-06-12 13:00:00 17.4 15 Oeste 39 Oeste 0 -- -- 51
2020-06-12 12:00:00 17.7 15 Oeste 33 Sudoeste 0 -- -- 50
2020-06-12 11:00:00 14.6 10 Oeste 37 Oeste 0 -- -- 57
2020-06-12 10:00:00 13.9 9 Oeste 28 Noroeste 0 -- -- 58
2020-06-12 09:00:00 14.1 13 Sudoeste 44 Sudoeste 0 -- -- 55
2020-06-12 08:00:00 13 8 Noroeste 19 Oeste 0 -- -- 58
2020-06-12 07:00:00 12.2 6 Oeste 40 Sudoeste 0 -- -- 60
2020-06-12 06:00:00 11.9 15 Sudoeste 34 Sudoeste 0 -- -- 61
2020-06-12 05:00:00 11.8 10 Sudoeste 24 Sudoeste 0 -- -- 64
2020-06-12 04:00:00 9.2 9 Oeste 17 Oeste 0 -- -- 85
2020-06-12 03:00:00 9.4 5 Sur 11 Sudeste 0 -- -- 88
2020-06-12 02:00:00 10.1 2 Sudoeste 10 Norte 0 -- -- 85
2020-06-12 01:00:00 11.2 3 Noroeste 14 Norte 0 -- -- 82
2020-06-12 00:00:00 11.5 9 Norte 24 Norte 0 -- -- 82